Time;durP1;ratioP1;P1;durP2;ratioP2;P2;SDS_P1;SDS_P2;PMS_P1;PMS_P2;Temp;Humidity;BMP_temperature;BMP_pressure;BME280_temperature;BME280_humidity;BME280_pressure;Samples;Min_cycle;Max_cycle;Signal;HPM_P1;HPM_P2
2023/01/31 00:05:08;;;;;;;1999.90;999.90;;;5.50;99.90;;;;;;6731512;88;20236;-76
2023/01/31 00:15:08;;;;;;;1999.90;999.90;;;5.60;99.90;;;;;;6732599;88;20275;-75
2023/01/31 00:25:09;;;;;;;1999.90;999.90;;;5.50;99.90;;;;;;6730906;88;20179;-76
2023/01/31 00:35:09;;;;;;;1999.90;999.90;;;5.60;99.90;;;;;;6734151;88;20221;-75
2023/01/31 00:45:10;;;;;;;1999.90;999.90;;;5.50;99.90;;;;;;6736012;88;20186;-76
2023/01/31 00:55:11;;;;;;;1999.90;999.90;;;5.40;99.90;;;;;;6732310;88;20207;-76
2023/01/31 01:05:11;;;;;;;1999.90;999.90;;;5.40;99.90;;;;;;6736230;88;20188;-76
2023/01/31 01:15:12;;;;;;;1999.90;999.90;;;5.40;99.90;;;;;;6733508;88;20251;-76
2023/01/31 01:25:12;;;;;;;1999.90;999.90;;;5.30;99.90;;;;;;6724510;88;20705;-77
2023/01/31 01:35:13;;;;;;;1999.90;999.90;;;5.30;99.90;;;;;;6731070;88;20200;-77
2023/01/31 01:45:14;;;;;;;1999.90;999.90;;;5.10;99.90;;;;;;6733166;88;20263;-75
2023/01/31 01:55:29;;;;;;;1999.90;999.90;;;5.00;99.90;;;;;;6732564;88;20522;-75
2023/01/31 02:05:55;;;;;;;1999.90;999.90;;;5.00;99.90;;;;;;6731639;88;20230;-78
2023/01/31 02:15:56;;;;;;;1999.90;999.90;;;4.90;99.90;;;;;;6728360;88;20180;-76
2023/01/31 02:26:21;;;;;;;1999.90;999.90;;;5.10;99.90;;;;;;6737822;88;20695;-77
2023/01/31 02:36:51;;;;;;;1999.90;999.90;;;5.00;99.90;;;;;;6734603;88;20323;-78
2023/01/31 02:47:08;;;;;;;1999.90;999.90;;;5.00;99.90;;;;;;6730943;88;21037;-76
2023/01/31 02:57:10;;;;;;;1999.90;999.90;;;4.90;99.90;;;;;;6736612;88;20318;-77
2023/01/31 03:07:28;;;;;;;1999.90;999.90;;;4.90;99.90;;;;;;6745438;88;20715;-77
2023/01/31 03:17:35;;;;;;;1999.90;999.90;;;4.80;99.90;;;;;;6735570;88;20315;-75
2023/01/31 03:27:39;;;;;;;1999.90;999.90;;;4.60;99.90;;;;;;6728664;88;20609;-76
2023/01/31 03:37:45;;;;;;;1999.90;999.90;;;4.60;99.90;;;;;;6732961;88;20196;-76
2023/01/31 03:47:48;;;;;;;1999.90;999.90;;;4.70;99.90;;;;;;6729535;88;20198;-76
2023/01/31 03:57:53;;;;;;;1999.90;999.90;;;4.70;99.90;;;;;;6735775;88;20572;-76
2023/01/31 04:07:54;;;;;;;1999.90;999.90;;;4.80;99.90;;;;;;6739412;88;20181;-78
2023/01/31 04:17:54;;;;;;;1999.90;999.90;;;4.70;99.90;;;;;;6739185;88;20314;-79
2023/01/31 04:27:55;;;;;;;1999.90;999.90;;;4.60;99.90;;;;;;6744005;88;20205;-79
2023/01/31 04:37:55;;;;;;;1999.90;999.90;;;4.50;99.90;;;;;;6744562;88;20217;-77
2023/01/31 04:47:56;;;;;;;1999.90;999.90;;;4.50;99.90;;;;;;6744984;88;20228;-76
2023/01/31 04:57:56;;;;;;;1999.90;999.90;;;4.50;99.90;;;;;;6736772;88;20210;-76
2023/01/31 05:07:57;;;;;;;1999.90;999.90;;;4.30;99.90;;;;;;6736467;88;20232;-78
2023/01/31 05:18:02;;;;;;;1999.90;999.90;;;4.40;99.90;;;;;;6734920;88;20184;-75
2023/01/31 05:28:03;;;;;;;1999.90;999.90;;;4.20;99.90;;;;;;6734726;88;20706;-76
2023/01/31 05:38:04;;;;;;;1999.90;999.90;;;4.10;99.90;;;;;;6734891;88;20216;-77
2023/01/31 05:48:05;;;;;;;1999.90;999.90;;;3.90;99.90;;;;;;6739248;88;20335;-76
2023/01/31 05:58:05;;;;;;;1999.90;999.90;;;3.60;99.90;;;;;;6734498;88;20242;-77
2023/01/31 06:08:06;;;;;;;1999.90;999.90;;;3.60;99.90;;;;;;6732835;88;20218;-77
2023/01/31 06:18:06;;;;;;;1999.90;999.90;;;3.60;99.90;;;;;;6732425;88;20193;-75
2023/01/31 06:28:07;;;;;;;1999.90;999.90;;;3.60;99.90;;;;;;6734795;88;20193;-79
2023/01/31 06:38:07;;;;;;;1999.90;999.90;;;3.60;99.90;;;;;;6734775;88;20213;-77
2023/01/31 06:48:08;;;;;;;1999.90;999.90;;;3.70;99.90;;;;;;6751045;88;20371;-77
2023/01/31 06:58:08;;;;;;;1999.90;999.90;;;3.70;99.90;;;;;;6743776;88;20351;-77
2023/01/31 07:08:09;;;;;;;1999.90;999.90;;;3.80;99.90;;;;;;6744180;88;20210;-80
2023/01/31 07:18:11;;;;;;;1999.90;999.90;;;3.90;99.90;;;;;;6741599;88;20272;-78
2023/01/31 07:28:11;;;;;;;1999.90;999.90;;;3.90;99.90;;;;;;6730768;88;20256;-78
2023/01/31 07:38:12;;;;;;;1999.90;999.90;;;3.90;99.90;;;;;;6734553;88;20189;-78
2023/01/31 07:48:12;;;;;;;1999.90;999.90;;;3.60;99.90;;;;;;6736545;88;20491;-76
2023/01/31 07:58:14;;;;;;;1999.90;999.90;;;3.80;99.90;;;;;;6736928;88;21072;-76
2023/01/31 08:08:15;;;;;;;1999.90;999.90;;;4.30;99.90;;;;;;6731779;88;20721;-76
2023/01/31 08:18:15;;;;;;;1999.90;999.90;;;4.60;99.90;;;;;;6736071;88;20227;-75
2023/01/31 08:28:16;;;;;;;1999.90;999.90;;;4.90;99.90;;;;;;6732475;88;20283;-76
2023/01/31 08:38:16;;;;;;;1999.90;999.90;;;5.20;99.90;;;;;;6736196;88;20217;-76
2023/01/31 08:48:17;;;;;;;1999.90;999.90;;;5.30;99.90;;;;;;6734737;88;20783;-75
2023/01/31 08:58:17;;;;;;;1999.90;999.90;;;5.60;99.90;;;;;;6737431;88;20708;-75
2023/01/31 09:08:18;;;;;;;1999.90;999.90;;;5.70;99.90;;;;;;6734718;88;20185;-75
2023/01/31 09:18:18;;;;;;;1999.90;999.90;;;5.90;99.90;;;;;;6726208;88;20193;-74
2023/01/31 09:28:19;;;;;;;1999.90;999.90;;;6.00;99.90;;;;;;6729656;88;20316;-75
2023/01/31 09:38:19;;;;;;;1999.90;999.90;;;6.20;99.90;;;;;;6730719;88;20279;-76
2023/01/31 09:48:27;;;;;;;1999.90;999.90;;;6.30;99.90;;;;;;6727106;88;20205;-76
2023/01/31 09:59:12;;;;;;;1999.90;999.90;;;6.30;99.90;;;;;;6722220;88;20222;-76
2023/01/31 10:09:32;;;;;;;1999.90;999.90;;;6.40;99.90;;;;;;6728660;88;20334;-75
2023/01/31 10:19:57;;;;;;;1999.90;999.90;;;6.50;99.90;;;;;;6726069;88;20834;-76
2023/01/31 10:30:01;;;;;;;1999.90;999.90;;;6.80;99.90;;;;;;6726992;88;20177;-76
2023/01/31 10:40:25;;;;;;;1999.90;999.90;;;6.90;99.90;;;;;;6730287;88;20180;-75
2023/01/31 10:50:48;;;;;;;1999.90;999.90;;;7.10;99.90;;;;;;6726556;88;20827;-76
2023/01/31 11:00:49;;;;;;;1999.90;999.90;;;7.30;99.90;;;;;;6731699;88;20169;-75
2023/01/31 11:10:52;;;;;;;1999.90;999.90;;;7.50;99.90;;;;;;6733860;88;20206;-77
2023/01/31 11:20:53;;;;;;;1999.90;999.90;;;7.50;99.90;;;;;;6732238;88;20213;-75
2023/01/31 11:30:54;;;;;;;1999.90;999.90;;;7.40;99.90;;;;;;6729136;88;20224;-75
2023/01/31 11:40:55;;;;;;;1999.90;999.90;;;7.40;99.90;;;;;;6733327;88;20276;-75
2023/01/31 11:50:59;;;;;;;1999.90;999.90;;;7.50;99.90;;;;;;6745137;88;20239;-76
2023/01/31 12:01:05;;;;;;;1999.90;999.90;;;7.80;99.90;;;;;;6736870;88;20797;-75
2023/01/31 12:11:18;;;;;;;;;;;7.90;99.90;;;;;;6743553;88;20245;-76
2023/01/31 12:21:21;;;;;;;1999.90;999.90;;;8.00;99.90;;;;;;6738720;88;20059;-76
2023/01/31 12:31:45;;;;;;;1999.90;999.90;;;8.10;99.90;;;;;;6731871;88;20197;-76
2023/01/31 12:42:23;;;;;;;1999.90;999.90;;;8.10;99.90;;;;;;6732195;88;20221;-76
2023/01/31 12:52:55;;;;;;;1999.90;999.90;;;8.00;99.90;;;;;;6730677;88;20231;-75
2023/01/31 13:03:19;;;;;;;1999.90;999.90;;;8.00;99.90;;;;;;6727647;88;20746;-75
2023/01/31 13:13:25;;;;;;;1999.90;999.90;;;7.80;99.90;;;;;;6725084;88;20294;-76
2023/01/31 13:23:32;;;;;;;1999.90;999.90;;;7.80;99.90;;;;;;6733791;88;20199;-76
2023/01/31 13:33:43;;;;;;;1999.90;999.90;;;7.90;99.90;;;;;;6730785;88;20755;-77
2023/01/31 13:43:44;;;;;;;1999.90;999.90;;;7.90;99.90;;;;;;6733803;88;20697;-75
2023/01/31 13:53:53;;;;;;;1999.90;999.90;;;7.90;99.90;;;;;;6734939;88;20196;-76
2023/01/31 14:04:16;;;;;;;1999.90;999.90;;;7.90;99.90;;;;;;6737832;88;20185;-75
2023/01/31 14:14:26;;;;;;;1999.90;999.90;;;8.00;99.90;;;;;;6729815;88;20239;-76
2023/01/31 14:24:45;;;;;;;1999.90;999.90;;;7.90;99.90;;;;;;6724887;88;20216;-75
2023/01/31 14:34:48;;;;;;;1999.90;999.90;;;7.80;99.90;;;;;;6730542;88;20288;-75
2023/01/31 14:45:22;;;;;;;1999.90;999.90;;;7.50;99.90;;;;;;6724356;88;20276;-75
2023/01/31 14:55:37;;;;;;;1999.90;999.90;;;7.40;99.90;;;;;;6726973;88;20637;-76
2023/01/31 15:05:47;;;;;;;1999.90;999.90;;;7.50;99.90;;;;;;6732361;88;20213;-75
2023/01/31 15:15:50;;;;;;;1999.90;999.90;;;7.60;99.90;;;;;;6731799;88;20734;-75
2023/01/31 15:25:52;;;;;;;1999.90;999.90;;;7.60;99.90;;;;;;6732950;88;20189;-74
2023/01/31 15:36:00;;;;;;;1999.90;999.90;;;7.70;99.90;;;;;;6733113;88;20207;-75
2023/01/31 15:46:31;;;;;;;1999.90;999.90;;;7.70;99.90;;;;;;6729061;88;20242;-76
2023/01/31 15:56:36;;;;;;;1999.90;999.90;;;7.70;99.90;;;;;;6717356;88;20220;-76
2023/01/31 16:06:38;;;;;;;1999.90;999.90;;;7.60;99.90;;;;;;6726742;88;20180;-76
2023/01/31 16:16:39;;;;;;;1999.90;999.90;;;7.30;99.90;;;;;;6732350;88;20206;-76
2023/01/31 16:26:58;;;;;;;1999.90;999.90;;;7.20;99.90;;;;;;6734162;88;20192;-76
2023/01/31 16:37:03;;;;;;;1999.90;999.90;;;7.00;99.90;;;;;;6733147;88;20207;-76
2023/01/31 16:47:04;;;;;;;1999.90;999.90;;;6.90;99.90;;;;;;6727945;88;20190;-77
2023/01/31 16:57:06;;;;;;;1999.90;999.90;;;6.90;99.90;;;;;;6730913;88;20250;-75
2023/01/31 17:07:16;;;;;;;1999.90;999.90;;;6.70;99.90;;;;;;6731089;88;20201;-76
2023/01/31 17:17:16;;;;;;;1999.90;999.90;;;6.70;99.90;;;;;;6726739;88;20366;-77
2023/01/31 17:27:18;;;;;;;1999.90;999.90;;;6.60;99.90;;;;;;6734601;88;20355;-79
2023/01/31 17:37:19;;;;;;;1999.90;999.90;;;6.60;99.90;;;;;;6739363;88;20226;-82
2023/01/31 17:47:22;;;;;;;1999.90;999.90;;;6.70;99.90;;;;;;6733726;88;20279;-78
2023/01/31 17:57:23;;;;;;;1999.90;999.90;;;6.80;99.90;;;;;;6723258;88;20186;-76
2023/01/31 18:07:23;;;;;;;1999.90;999.90;;;6.70;99.90;;;;;;6723781;88;20202;-77
2023/01/31 18:17:24;;;;;;;1999.90;999.90;;;6.90;99.90;;;;;;6730364;88;20196;-78
2023/01/31 18:27:25;;;;;;;1999.90;999.90;;;6.90;99.90;;;;;;6732473;88;20251;-78
2023/01/31 18:37:25;;;;;;;1999.90;999.90;;;7.00;99.90;;;;;;6738022;88;20941;-77
2023/01/31 18:47:26;;;;;;;1999.90;999.90;;;7.10;99.90;;;;;;6740440;88;20226;-77
2023/01/31 18:57:26;;;;;;;1999.90;999.90;;;7.10;99.90;;;;;;6746651;88;20189;-76
2023/01/31 19:07:27;;;;;;;1999.90;999.90;;;7.10;99.90;;;;;;6757428;87;20233;-76
2023/01/31 19:17:27;;;;;;;1999.90;999.90;;;7.10;99.90;;;;;;6756383;88;20566;-77
2023/01/31 19:27:28;;;;;;;1999.90;999.90;;;7.00;99.90;;;;;;6743569;88;20188;-78
2023/01/31 19:37:28;;;;;;;1999.90;999.90;;;6.80;99.90;;;;;;6738244;88;20703;-76
2023/01/31 19:47:29;;;;;;;1999.90;999.90;;;6.50;99.90;;;;;;6727558;88;20189;-77
2023/01/31 19:57:29;;;;;;;1999.90;999.90;;;6.20;99.90;;;;;;6734352;88;20192;-76
2023/01/31 20:07:30;;;;;;;1999.90;999.90;;;6.10;99.90;;;;;;6732045;88;20201;-75
2023/01/31 20:17:31;;;;;;;1999.90;999.90;;;6.00;99.90;;;;;;6730061;88;21023;-76
2023/01/31 20:27:32;;;;;;;1999.90;999.90;;;6.00;99.90;;;;;;6735449;88;20192;-78
2023/01/31 20:37:33;;;;;;;1999.90;999.90;;;6.00;99.90;;;;;;6739490;88;20184;-76
2023/01/31 20:47:33;;;;;;;1999.90;999.90;;;6.10;99.90;;;;;;6741176;88;20230;-77
2023/01/31 20:57:34;;;;;;;1999.90;999.90;;;6.20;99.90;;;;;;6736881;88;20303;-77
2023/01/31 21:07:34;;;;;;;1999.90;999.90;;;6.20;99.90;;;;;;6740957;88;20205;-77
2023/01/31 21:17:35;;;;;;;1999.90;999.90;;;6.10;99.90;;;;;;6737459;88;20207;-77
2023/01/31 21:27:35;;;;;;;1999.90;999.90;;;5.90;99.90;;;;;;6731424;88;20642;-78
2023/01/31 21:37:36;;;;;;;1999.90;999.90;;;5.60;99.90;;;;;;6731462;88;20176;-76
2023/01/31 21:48:27;;;;;;;1999.90;999.90;;;5.50;99.90;;;;;;6734796;88;20184;-75
2023/01/31 21:57:57;;;;;;;1999.90;999.90;;;5.40;99.90;;;;;;6734069;88;20623;-76
2023/01/31 22:07:57;;;;;;;1999.90;999.90;;;5.70;99.90;;;;;;6733711;88;20235;-76
2023/01/31 22:17:58;;;;;;;1999.90;999.90;;;6.00;99.90;;;;;;6735576;88;20369;-77
2023/01/31 22:27:58;;;;;;;1999.90;999.90;;;6.20;99.90;;;;;;6741499;88;20202;-77
2023/01/31 22:37:59;;;;;;;1999.90;999.90;;;6.30;99.90;;;;;;6735169;88;20173;-77
2023/01/31 22:47:59;;;;;;;1999.90;999.90;;;6.30;99.90;;;;;;6736650;88;20212;-77
2023/01/31 22:58:00;;;;;;;1999.90;999.90;;;6.40;99.90;;;;;;6736983;88;20274;-77
2023/01/31 23:08:00;;;;;;;1999.90;999.90;;;6.40;99.90;;;;;;6740994;78;20272;-75
2023/01/31 23:18:02;;;;;;;1999.90;999.90;;;6.50;99.90;;;;;;6730388;88;20189;-76
2023/01/31 23:28:02;;;;;;;1999.90;999.90;;;6.50;99.90;;;;;;6727884;88;20198;-76
2023/01/31 23:38:03;;;;;;;1999.90;999.90;;;6.50;99.90;;;;;;6726072;88;20246;-75
2023/01/31 23:48:03;;;;;;;1999.90;999.90;;;6.60;99.90;;;;;;6725963;88;20313;-75
2023/01/31 23:58:04;;;;;;;1999.90;999.90;;;6.40;99.90;;;;;;6729098;88;20212;-75
